Current Observation

FTSO31 AGGG 280440
TAF COR AGGH 280440Z 2806/2906 05006KT 9999 –SHDZ FEW018 SCT029 
FM280800 VRB03KT 9999 FEW017 SCT110
T 29 26 25 23 Q 1008 1010 1011 1010=

TAF AGGM 280440Z 2806/2906 VRB03KT 9999 FEW018 SCT029  
Q 1008 1010 1011 1010=

TAF AGGN 280440Z 2806/2906 VRB03KT 9999 FEW018 SCT029 
Q 1008 1010 1011 1010=


***************************************************************************************

TAF AGGC 272250Z 2800/2824 14010KT 9999 SCT019 SCT030
PROB40 INTER 2800/2807 5000 TSSH SCT016 FEW017CB BKN028
Q 1010 1008 1008 1010=
 
TAF AGGA 272250Z 2800/2824 18008KT 9999 SCT019  
Q 1011 1009 1009 1011=
 
TAF AGGK 272250Z 2800/2824 05010KT 9999 SCT019 
Q 1011 1009 1009 1011=
                       
TAF AGGL 272250Z 2800/2824 11010KT 9999 SCT019 SCT030 
Q 1012 1010 1010 1012=

TAF AGGR 272250Z 2800/2824 09007KT 9999 SCT019
Q 1012 1010 1010 1012=

 

Last modified on Tuesday, 28 March 2017 15:45

Weather Outlook

Support and Docs

Modern Design
Go to top